sensor_id;sensor_type;location;lat;lon;timestamp;pressure;altitude;pressure_sealevel;temperature;humidity
12101;BME280;6113;42.678;23.334;2022-09-13T00:01:01;94623.19;;;17.04;78.64
12101;BME280;6113;42.678;23.334;2022-09-13T00:03:28;94568.50;;;16.78;78.00
12101;BME280;6113;42.678;23.334;2022-09-13T00:05:55;94628.16;;;17.11;78.39
12101;BME280;6113;42.678;23.334;2022-09-13T00:08:23;94621.19;;;17.10;78.70
12101;BME280;6113;42.678;23.334;2022-09-13T00:10:50;94621.66;;;17.14;78.51
12101;BME280;6113;42.678;23.334;2022-09-13T00:13:17;94614.66;;;17.18;78.41
12101;BME280;6113;42.678;23.334;2022-09-13T00:15:45;94609.94;;;17.13;78.65
12101;BME280;6113;42.678;23.334;2022-09-13T00:18:12;94608.69;;;17.09;78.74
12101;BME280;6113;42.678;23.334;2022-09-13T00:20:39;94599.97;;;16.94;79.78
12101;BME280;6113;42.678;23.334;2022-09-13T00:23:06;94600.25;;;16.85;80.51
12101;BME280;6113;42.678;23.334;2022-09-13T00:25:34;94594.00;;;16.73;81.12
12101;BME280;6113;42.678;23.334;2022-09-13T00:28:01;94554.53;;;16.55;81.11
12101;BME280;6113;42.678;23.334;2022-09-13T00:30:28;94603.50;;;16.72;81.43
12101;BME280;6113;42.678;23.334;2022-09-13T00:32:55;94599.75;;;16.59;82.38
12101;BME280;6113;42.678;23.334;2022-09-13T00:35:22;94596.25;;;16.69;82.01
12101;BME280;6113;42.678;23.334;2022-09-13T00:37:49;94550.06;;;16.52;81.56
12101;BME280;6113;42.678;23.334;2022-09-13T00:40:16;94600.25;;;16.85;81.18
12101;BME280;6113;42.678;23.334;2022-09-13T00:42:44;94566.00;;;16.75;80.54
12101;BME280;6113;42.678;23.334;2022-09-13T00:45:15;94596.22;;;16.91;81.23
12101;BME280;6113;42.678;23.334;2022-09-13T00:47:46;94596.44;;;17.04;80.56
12101;BME280;6113;42.678;23.334;2022-09-13T00:50:18;94574.00;;;16.84;80.89
12101;BME280;6113;42.678;23.334;2022-09-13T00:52:52;94590.25;;;16.82;81.64
12101;BME280;6113;42.678;23.334;2022-09-13T00:55:25;94592.47;;;16.94;81.23
12101;BME280;6113;42.678;23.334;2022-09-13T00:57:58;94584.47;;;16.85;81.89
12101;BME280;6113;42.678;23.334;2022-09-13T01:00:26;94570.00;;;16.79;81.52
12101;BME280;6113;42.678;23.334;2022-09-13T01:02:56;94587.94;;;16.97;81.06
12101;BME280;6113;42.678;23.334;2022-09-13T01:05:25;94590.16;;;17.15;80.45
12101;BME280;6113;42.678;23.334;2022-09-13T01:07:53;94592.63;;;17.24;79.67
12101;BME280;6113;42.678;23.334;2022-09-13T01:10:21;94588.13;;;17.32;79.18
12101;BME280;6113;42.678;23.334;2022-09-13T01:12:53;94585.31;;;17.48;78.25
12101;BME280;6113;42.678;23.334;2022-09-13T01:15:23;94584.84;;;17.44;78.04
12101;BME280;6113;42.678;23.334;2022-09-13T01:17:52;94590.53;;;17.51;78.11
12101;BME280;6113;42.678;23.334;2022-09-13T01:20:24;94582.09;;;17.44;77.93
12101;BME280;6113;42.678;23.334;2022-09-13T01:26:47;94578.34;;;17.41;78.18
12101;BME280;6113;42.678;23.334;2022-09-13T01:30:00;94574.38;;;17.21;79.20
12101;BME280;6113;42.678;23.334;2022-09-13T01:32:34;94579.19;;;17.04;79.96
12101;BME280;6113;42.678;23.334;2022-09-13T01:35:13;94585.72;;;16.90;80.99
12101;BME280;6113;42.678;23.334;2022-09-13T01:37:52;94574.97;;;16.97;80.80
12101;BME280;6113;42.678;23.334;2022-09-13T01:40:38;94585.19;;;16.97;80.78
12101;BME280;6113;42.678;23.334;2022-09-13T01:43:25;94545.97;;;16.85;80.31
12101;BME280;6113;42.678;23.334;2022-09-13T01:46:01;94568.69;;;16.97;80.48
12101;BME280;6113;42.678;23.334;2022-09-13T01:48:35;94570.22;;;16.87;81.07
12101;BME280;6113;42.678;23.334;2022-09-13T01:51:12;94569.22;;;16.84;81.61
12101;BME280;6113;42.678;23.334;2022-09-13T01:53:49;94581.25;;;16.76;82.14
12101;BME280;6113;42.678;23.334;2022-09-13T01:56:21;94575.50;;;16.85;81.70
12101;BME280;6113;42.678;23.334;2022-09-13T01:58:55;94568.25;;;16.82;81.89
12101;BME280;6113;42.678;23.334;2022-09-13T02:01:29;94575.72;;;16.87;81.42
12101;BME280;6113;42.678;23.334;2022-09-13T02:04:01;94572.75;;;16.85;81.87
12101;BME280;6113;42.678;23.334;2022-09-13T02:06:33;94574.47;;;16.88;81.81
12101;BME280;6113;42.678;23.334;2022-09-13T02:09:07;94480.66;;;16.29;80.75
12101;BME280;6113;42.678;23.334;2022-09-13T02:11:37;94570.00;;;16.79;82.27
12101;BME280;6113;42.678;23.334;2022-09-13T02:14:06;94530.78;;;16.62;81.45
12101;BME280;6113;42.678;23.334;2022-09-13T02:16:42;94530.00;;;16.78;80.92
12101;BME280;6113;42.678;23.334;2022-09-13T02:19:14;94568.41;;;17.11;80.36
12101;BME280;6113;42.678;23.334;2022-09-13T02:21:46;94571.16;;;17.17;79.73
12101;BME280;6113;42.678;23.334;2022-09-13T02:24:18;94551.19;;;17.00;79.82
12101;BME280;6113;42.678;23.334;2022-09-13T02:26:50;94585.94;;;17.03;80.21
12101;BME280;6113;42.678;23.334;2022-09-13T02:29:20;94567.41;;;17.14;79.80
12101;BME280;6113;42.678;23.334;2022-09-13T02:31:54;94560.69;;;17.10;79.67
12101;BME280;6113;42.678;23.334;2022-09-13T02:34:24;94568.22;;;16.93;80.20
12101;BME280;6113;42.678;23.334;2022-09-13T02:36:54;94543.81;;;16.46;82.65
12101;BME280;6113;42.678;23.334;2022-09-13T02:39:24;94579.28;;;16.60;82.61
12101;BME280;6113;42.678;23.334;2022-09-13T02:41:56;94575.75;;;16.65;82.44
12101;BME280;6113;42.678;23.334;2022-09-13T02:44:27;94564.03;;;16.48;83.22
12101;BME280;6113;42.678;23.334;2022-09-13T02:47:09;94541.06;;;16.46;82.94
12101;BME280;6113;42.678;23.334;2022-09-13T02:49:46;94576.53;;;16.60;83.25
12101;BME280;6113;42.678;23.334;2022-09-13T02:52:22;94568.75;;;16.75;82.15
12101;BME280;6113;42.678;23.334;2022-09-13T02:54:56;94573.31;;;16.51;83.20
12101;BME280;6113;42.678;23.334;2022-09-13T02:57:29;94548.56;;;16.34;83.54
12101;BME280;6113;42.678;23.334;2022-09-13T02:59:57;94566.78;;;16.59;82.58
12101;BME280;6113;42.678;23.334;2022-09-13T03:02:28;94546.28;;;16.27;83.27
12101;BME280;6113;42.678;23.334;2022-09-13T03:04:58;94555.03;;;16.26;83.47
12101;BME280;6113;42.678;23.334;2022-09-13T03:07:25;94561.81;;;16.30;84.36
12101;BME280;6113;42.678;23.334;2022-09-13T03:09:54;94579.78;;;16.53;82.86
12101;BME280;6113;42.678;23.334;2022-09-13T03:12:37;94570.81;;;16.47;82.69
12101;BME280;6113;42.678;23.334;2022-09-13T03:15:15;94574.25;;;16.75;81.60
12101;BME280;6113;42.678;23.334;2022-09-13T03:17:53;94580.25;;;16.79;80.86
12101;BME280;6113;42.678;23.334;2022-09-13T03:20:29;94574.00;;;16.84;81.00
12101;BME280;6113;42.678;23.334;2022-09-13T03:23:29;94575.44;;;17.01;79.84
12101;BME280;6113;42.678;23.334;2022-09-13T03:26:11;94547.75;;;16.88;79.29
12101;BME280;6113;42.678;23.334;2022-09-13T03:28:51;94579.66;;;17.13;79.15
12101;BME280;6113;42.678;23.334;2022-09-13T03:31:26;94537.72;;;16.91;78.58
12101;BME280;6113;42.678;23.334;2022-09-13T03:33:58;94576.16;;;17.13;78.51
12101;BME280;6113;42.678;23.334;2022-09-13T03:36:34;94561.94;;;17.03;77.71
12101;BME280;6113;42.678;23.334;2022-09-13T03:39:07;94574.13;;;17.19;77.78
12101;BME280;6113;42.678;23.334;2022-09-13T03:41:41;94569.38;;;17.19;77.71
12101;BME280;6113;42.678;23.334;2022-09-13T03:44:11;94571.72;;;16.88;79.02
12101;BME280;6113;42.678;23.334;2022-09-13T03:46:41;94582.97;;;16.90;78.96
12101;BME280;6113;42.678;23.334;2022-09-13T03:49:14;94555.00;;;16.80;78.96
12101;BME280;6113;42.678;23.334;2022-09-13T03:51:44;94554.75;;;16.84;78.77
12101;BME280;6113;42.678;23.334;2022-09-13T03:54:16;94578.19;;;17.07;78.19
12101;BME280;6113;42.678;23.334;2022-09-13T03:56:45;94565.69;;;17.06;77.56
12101;BME280;6113;42.678;23.334;2022-09-13T03:59:30;94583.16;;;17.19;77.30
12101;BME280;6113;42.678;23.334;2022-09-13T04:01:58;94561.94;;;17.09;77.52
12101;BME280;6113;42.678;23.334;2022-09-13T04:04:26;94577.41;;;17.17;77.00
12101;BME280;6113;42.678;23.334;2022-09-13T04:06:53;94583.34;;;17.27;77.39
12101;BME280;6113;42.678;23.334;2022-09-13T04:09:21;94577.84;;;17.38;76.75
12101;BME280;6113;42.678;23.334;2022-09-13T04:11:48;94582.31;;;17.46;76.35
12101;BME280;6113;42.678;23.334;2022-09-13T04:14:14;94578.28;;;17.52;75.75
12101;BME280;6113;42.678;23.334;2022-09-13T04:16:41;94580.75;;;17.61;77.49
12101;BME280;6113;42.678;23.334;2022-09-13T04:19:08;94577.44;;;17.68;76.40
12101;BME280;6113;42.678;23.334;2022-09-13T04:21:36;94577.41;;;17.79;77.83
12101;BME280;6113;42.678;23.334;2022-09-13T04:24:03;94572.84;;;17.87;76.86
12101;BME280;6113;42.678;23.334;2022-09-13T04:26:30;94578.06;;;17.96;77.17
12101;BME280;6113;42.678;23.334;2022-09-13T04:28:59;94585.22;;;18.10;76.24
12101;BME280;6113;42.678;23.334;2022-09-13T04:31:26;94580.16;;;18.14;74.88
12101;BME280;6113;42.678;23.334;2022-09-13T04:33:52;94581.69;;;18.10;74.06
12101;BME280;6113;42.678;23.334;2022-09-13T04:36:19;94569.31;;;17.92;74.18
12101;BME280;6113;42.678;23.334;2022-09-13T04:38:48;94585.38;;;17.88;74.53
12101;BME280;6113;42.678;23.334;2022-09-13T04:41:15;94592.88;;;17.82;74.73
12101;BME280;6113;42.678;23.334;2022-09-13T04:43:42;94596.94;;;17.76;75.25
12101;BME280;6113;42.678;23.334;2022-09-13T04:46:09;94601.69;;;17.75;74.39
12101;BME280;6113;42.678;23.334;2022-09-13T04:48:35;94597.72;;;17.71;74.67
12101;BME280;6113;42.678;23.334;2022-09-13T04:51:03;94609.25;;;17.69;74.35
12101;BME280;6113;42.678;23.334;2022-09-13T04:53:30;94608.25;;;17.67;73.83
12101;BME280;6113;42.678;23.334;2022-09-13T04:56:00;94610.25;;;17.66;74.51
12101;BME280;6113;42.678;23.334;2022-09-13T04:58:27;94611.75;;;17.67;75.46
12101;BME280;6113;42.678;23.334;2022-09-13T05:01:00;94614.25;;;17.65;75.91
12101;BME280;6113;42.678;23.334;2022-09-13T05:03:28;94609.00;;;17.67;75.04
12101;BME280;6113;42.678;23.334;2022-09-13T05:06:00;94615.47;;;17.75;76.12
12101;BME280;6113;42.678;23.334;2022-09-13T05:08:27;94614.19;;;17.82;75.91
12101;BME280;6113;42.678;23.334;2022-09-13T05:10:54;94611.13;;;17.91;75.29
12101;BME280;6113;42.678;23.334;2022-09-13T05:13:22;94603.03;;;18.04;75.45
12101;BME280;6113;42.678;23.334;2022-09-13T05:15:49;94609.72;;;18.19;75.90
12101;BME280;6113;42.678;23.334;2022-09-13T05:18:16;94593.66;;;18.23;73.39
12101;BME280;6113;42.678;23.334;2022-09-13T05:20:42;94607.53;;;18.47;71.26
12101;BME280;6113;42.678;23.334;2022-09-13T05:23:09;94605.94;;;18.57;69.79
12101;BME280;6113;42.678;23.334;2022-09-13T05:25:36;94607.88;;;18.32;69.89
12101;BME280;6113;42.678;23.334;2022-09-13T05:28:03;94602.06;;;18.36;69.76
12101;BME280;6113;42.678;23.334;2022-09-13T05:30:31;94595.88;;;18.59;69.24
12101;BME280;6113;42.678;23.334;2022-09-13T05:32:58;94604.50;;;18.80;69.26
12101;BME280;6113;42.678;23.334;2022-09-13T05:35:24;94602.19;;;19.07;68.45
12101;BME280;6113;42.678;23.334;2022-09-13T05:37:51;94605.13;;;19.20;67.82
12101;BME280;6113;42.678;23.334;2022-09-13T05:40:18;94612.50;;;19.07;66.04
12101;BME280;6113;42.678;23.334;2022-09-13T05:42:45;94603.47;;;19.06;66.39
12101;BME280;6113;42.678;23.334;2022-09-13T05:45:11;94603.34;;;18.64;67.46
12101;BME280;6113;42.678;23.334;2022-09-13T05:47:40;94612.16;;;18.63;68.05
12101;BME280;6113;42.678;23.334;2022-09-13T05:50:07;94614.59;;;18.37;68.60
12101;BME280;6113;42.678;23.334;2022-09-13T05:52:34;94589.47;;;18.46;68.60
12101;BME280;6113;42.678;23.334;2022-09-13T05:55:01;94611.63;;;18.35;68.54
12101;BME280;6113;42.678;23.334;2022-09-13T05:57:28;94608.53;;;18.09;69.39
12101;BME280;6113;42.678;23.334;2022-09-13T05:59:55;94613.19;;;18.25;69.10
12101;BME280;6113;42.678;23.334;2022-09-13T06:02:21;94609.72;;;18.19;69.09
12101;BME280;6113;42.678;23.334;2022-09-13T06:04:49;94610.09;;;18.39;69.96
12101;BME280;6113;42.678;23.334;2022-09-13T06:07:16;94604.38;;;18.67;68.28
12101;BME280;6113;42.678;23.334;2022-09-13T06:09:43;94612.16;;;18.63;67.54
12101;BME280;6113;42.678;23.334;2022-09-13T06:12:10;94611.38;;;18.92;67.68
12101;BME280;6113;42.678;23.334;2022-09-13T06:14:36;94611.56;;;18.99;66.59
12101;BME280;6113;42.678;23.334;2022-09-13T06:17:03;94610.75;;;19.33;66.07
12101;BME280;6113;42.678;23.334;2022-09-13T06:19:30;94611.75;;;19.54;65.96
12101;BME280;6113;42.678;23.334;2022-09-13T06:21:58;94626.22;;;19.84;64.41
12101;BME280;6113;42.678;23.334;2022-09-13T06:24:25;94613.00;;;20.14;64.24
12101;BME280;6113;42.678;23.334;2022-09-13T06:26:52;94585.44;;;20.27;62.11
12101;BME280;6113;42.678;23.334;2022-09-13T06:29:19;94618.97;;;20.67;61.08
12101;BME280;6113;42.678;23.334;2022-09-13T06:31:46;94616.88;;;20.73;60.11
12101;BME280;6113;42.678;23.334;2022-09-13T06:34:13;94621.72;;;20.86;60.58
12101;BME280;6113;42.678;23.334;2022-09-13T06:36:40;94631.28;;;21.16;59.92
12101;BME280;6113;42.678;23.334;2022-09-13T06:39:08;94626.38;;;21.35;59.73
12101;BME280;6113;42.678;23.334;2022-09-13T06:41:37;94616.91;;;21.43;59.12
12101;BME280;6113;42.678;23.334;2022-09-13T06:44:04;94632.81;;;21.69;57.99
12101;BME280;6113;42.678;23.334;2022-09-13T06:46:33;94636.63;;;21.92;58.24
12101;BME280;6113;42.678;23.334;2022-09-13T06:49:01;94633.16;;;22.24;57.20
12101;BME280;6113;42.678;23.334;2022-09-13T06:51:29;94636.25;;;22.34;56.20
12101;BME280;6113;42.678;23.334;2022-09-13T06:53:56;94644.50;;;22.47;55.96
12101;BME280;6113;42.678;23.334;2022-09-13T06:56:27;94635.75;;;22.76;55.30
12101;BME280;6113;42.678;23.334;2022-09-13T06:58:59;94607.13;;;22.81;53.90
12101;BME280;6113;42.678;23.334;2022-09-13T07:01:28;94633.94;;;22.99;52.89
12101;BME280;6113;42.678;23.334;2022-09-13T07:03:58;94643.16;;;22.27;53.00
12101;BME280;6113;42.678;23.334;2022-09-13T07:06:27;94639.50;;;21.99;54.72
12101;BME280;6113;42.678;23.334;2022-09-13T07:08:55;94650.25;;;22.16;55.04
12101;BME280;6113;42.678;23.334;2022-09-13T07:11:24;94653.22;;;22.18;55.60
12101;BME280;6113;42.678;23.334;2022-09-13T07:13:53;94650.81;;;22.47;55.46
12101;BME280;6113;42.678;23.334;2022-09-13T07:16:22;94651.13;;;22.77;54.39
12101;BME280;6113;42.678;23.334;2022-09-13T07:18:50;94616.97;;;22.49;52.67
12101;BME280;6113;42.678;23.334;2022-09-13T07:21:18;94646.09;;;22.55;53.62
12101;BME280;6113;42.678;23.334;2022-09-13T07:23:45;94651.69;;;22.96;52.54
12101;BME280;6113;42.678;23.334;2022-09-13T07:26:11;94648.63;;;22.87;51.35
12101;BME280;6113;42.678;23.334;2022-09-13T07:28:41;94626.53;;;23.01;51.97
12101;BME280;6113;42.678;23.334;2022-09-13T07:31:11;94647.00;;;23.52;51.35
12101;BME280;6113;42.678;23.334;2022-09-13T07:33:39;94627.59;;;23.60;50.27
12101;BME280;6113;42.678;23.334;2022-09-13T07:36:07;94635.28;;;23.74;49.35
12101;BME280;6113;42.678;23.334;2022-09-13T07:38:34;94646.94;;;24.00;48.98
12101;BME280;6113;42.678;23.334;2022-09-13T07:41:02;94652.06;;;23.89;48.48
12101;BME280;6113;42.678;23.334;2022-09-13T07:43:31;94650.69;;;24.03;49.13
12101;BME280;6113;42.678;23.334;2022-09-13T07:45:59;94659.31;;;24.27;48.65
12101;BME280;6113;42.678;23.334;2022-09-13T07:48:29;94657.78;;;24.62;48.03
12101;BME280;6113;42.678;23.334;2022-09-13T07:50:57;94646.50;;;24.82;47.10
12101;BME280;6113;42.678;23.334;2022-09-13T07:53:25;94659.53;;;24.94;46.24
12101;BME280;6113;42.678;23.334;2022-09-13T07:55:52;94658.44;;;25.05;49.34
12101;BME280;6113;42.678;23.334;2022-09-13T07:58:19;94657.34;;;25.30;46.96
12101;BME280;6113;42.678;23.334;2022-09-13T08:00:46;94655.53;;;25.48;46.48
12101;BME280;6113;42.678;23.334;2022-09-13T08:03:13;94657.00;;;25.26;46.79
12101;BME280;6113;42.678;23.334;2022-09-13T08:05:41;94629.47;;;25.08;51.24
12101;BME280;6113;42.678;23.334;2022-09-13T08:08:08;94667.53;;;24.98;49.79
12101;BME280;6113;42.678;23.334;2022-09-13T08:10:36;94658.75;;;24.71;48.63
12101;BME280;6113;42.678;23.334;2022-09-13T08:13:03;94650.56;;;24.66;46.98
12101;BME280;6113;42.678;23.334;2022-09-13T08:15:29;94656.56;;;24.85;48.17
12101;BME280;6113;42.678;23.334;2022-09-13T08:17:56;94632.63;;;25.04;46.18
12101;BME280;6113;42.678;23.334;2022-09-13T08:20:24;94654.38;;;25.50;46.83
12101;BME280;6113;42.678;23.334;2022-09-13T08:22:53;94657.72;;;25.27;45.16
12101;BME280;6113;42.678;23.334;2022-09-13T08:25:20;94656.69;;;24.72;46.21
12101;BME280;6113;42.678;23.334;2022-09-13T08:28:13;94651.97;;;24.45;43.79
12101;BME280;6113;42.678;23.334;2022-09-13T08:31:19;94657.66;;;23.41;45.96
12101;BME280;6113;42.678;23.334;2022-09-13T08:44:48;94647.22;;;23.62;45.38
12101;BME280;6113;42.678;23.334;2022-09-13T08:47:49;94640.16;;;23.81;44.02
12101;BME280;6113;42.678;23.334;2022-09-13T08:50:52;94649.00;;;24.07;43.45
12101;BME280;6113;42.678;23.334;2022-09-13T09:00:18;94640.84;;;22.85;44.52
12101;BME280;6113;42.678;23.334;2022-09-13T09:06:29;94641.78;;;22.67;43.58
12101;BME280;6113;42.678;23.334;2022-09-13T09:16:25;94650.59;;;23.40;42.16
12101;BME280;6113;42.678;23.334;2022-09-13T09:22:40;94644.09;;;23.37;41.10
12101;BME280;6113;42.678;23.334;2022-09-13T09:26:04;94648.91;;;23.37;41.15
12101;BME280;6113;42.678;23.334;2022-09-13T09:29:05;94641.31;;;22.76;42.21
12101;BME280;6113;42.678;23.334;2022-09-13T09:32:00;94642.75;;;22.90;42.40
12101;BME280;6113;42.678;23.334;2022-09-13T09:34:43;94641.22;;;23.22;42.60
12101;BME280;6113;42.678;23.334;2022-09-13T09:37:16;94630.38;;;23.60;40.68
12101;BME280;6113;42.678;23.334;2022-09-13T09:39:47;94608.00;;;23.45;39.52
12101;BME280;6113;42.678;23.334;2022-09-13T09:42:20;94629.03;;;23.81;39.99
12101;BME280;6113;42.678;23.334;2022-09-13T09:44:51;94599.84;;;23.39;39.46
12101;BME280;6113;42.678;23.334;2022-09-13T09:47:24;94624.31;;;24.04;40.20
12101;BME280;6113;42.678;23.334;2022-09-13T09:49:54;94615.25;;;24.54;38.78
12101;BME280;6113;42.678;23.334;2022-09-13T09:52:42;94616.91;;;24.49;38.21
12101;BME280;6113;42.678;23.334;2022-09-13T09:55:15;94614.53;;;24.53;39.18
12101;BME280;6113;42.678;23.334;2022-09-13T09:57:49;94620.50;;;24.65;38.69
12101;BME280;6113;42.678;23.334;2022-09-13T10:00:18;94611.91;;;24.55;38.63
12101;BME280;6113;42.678;23.334;2022-09-13T10:02:47;94602.50;;;24.66;38.45
12101;BME280;6113;42.678;23.334;2022-09-13T10:05:17;94597.53;;;25.09;38.00
12101;BME280;6113;42.678;23.334;2022-09-13T10:07:52;94584.09;;;24.70;37.84
12101;BME280;6113;42.678;23.334;2022-09-13T10:10:23;94595.31;;;25.15;38.21
12101;BME280;6113;42.678;23.334;2022-09-13T10:12:57;94578.94;;;24.96;38.25
12101;BME280;6113;42.678;23.334;2022-09-13T10:15:27;94597.88;;;25.43;38.24
12101;BME280;6113;42.678;23.334;2022-09-13T10:18:04;94581.13;;;25.57;38.31
12101;BME280;6113;42.678;23.334;2022-09-13T10:20:33;94585.78;;;25.55;37.36
12101;BME280;6113;42.678;23.334;2022-09-13T10:23:23;94591.94;;;25.53;36.46
12101;BME280;6113;42.678;23.334;2022-09-13T10:25:57;94593.59;;;25.56;36.95
12101;BME280;6113;42.678;23.334;2022-09-13T10:28:25;94582.84;;;25.46;35.99
12101;BME280;6113;42.678;23.334;2022-09-13T10:30:55;94584.31;;;25.47;36.71
12101;BME280;6113;42.678;23.334;2022-09-13T10:33:28;94581.13;;;25.57;36.89
12101;BME280;6113;42.678;23.334;2022-09-13T10:35:57;94585.94;;;25.64;36.07
12101;BME280;6113;42.678;23.334;2022-09-13T10:38:30;94566.84;;;24.64;37.77
12101;BME280;6113;42.678;23.334;2022-09-13T10:41:01;94568.34;;;24.95;38.41
12101;BME280;6113;42.678;23.334;2022-09-13T10:43:29;94564.25;;;25.26;38.18
12101;BME280;6113;42.678;23.334;2022-09-13T10:45:59;94564.00;;;25.61;36.41
12101;BME280;6113;42.678;23.334;2022-09-13T10:48:30;94559.66;;;25.97;35.81
12101;BME280;6113;42.678;23.334;2022-09-13T10:51:19;94565.66;;;25.86;36.17
12101;BME280;6113;42.678;23.334;2022-09-13T11:17:59;94549.56;;;27.05;32.41
12101;BME280;6113;42.678;23.334;2022-09-13T11:50:34;94498.91;;;25.81;32.78
12101;BME280;6113;42.678;23.334;2022-09-13T11:53:44;94531.03;;;25.89;33.56
12101;BME280;6113;42.678;23.334;2022-09-13T11:59:42;94529.69;;;25.06;35.54
12101;BME280;6113;42.678;23.334;2022-09-13T12:05:27;94465.81;;;24.86;34.34
12101;BME280;6113;42.678;23.334;2022-09-13T12:07:59;94532.84;;;25.48;34.57
12101;BME280;6113;42.678;23.334;2022-09-13T12:10:31;94522.47;;;25.87;34.48
12101;BME280;6113;42.678;23.334;2022-09-13T12:13:01;94522.28;;;25.93;33.65
12101;BME280;6113;42.678;23.334;2022-09-13T12:15:34;94521.44;;;26.15;34.35
12101;BME280;6113;42.678;23.334;2022-09-13T12:18:05;94519.28;;;25.98;34.27
12101;BME280;6113;42.678;23.334;2022-09-13T12:20:37;94533.38;;;26.08;34.32
12101;BME280;6113;42.678;23.334;2022-09-13T12:23:12;94519.81;;;26.04;33.20
12101;BME280;6113;42.678;23.334;2022-09-13T12:25:46;94514.00;;;26.17;32.73
12101;BME280;6113;42.678;23.334;2022-09-13T12:28:18;94519.59;;;26.49;32.92
12101;BME280;6113;42.678;23.334;2022-09-13T12:30:51;94523.41;;;26.29;32.39
12101;BME280;6113;42.678;23.334;2022-09-13T12:33:20;94522.69;;;26.21;32.85
12101;BME280;6113;42.678;23.334;2022-09-13T12:36:09;94523.84;;;26.50;32.41
12101;BME280;6113;42.678;23.334;2022-09-13T12:38:55;94533.44;;;26.32;32.04
12101;BME280;6113;42.678;23.334;2022-09-13T12:41:35;94517.75;;;26.44;32.44
12101;BME280;6113;42.678;23.334;2022-09-13T12:44:19;94518.28;;;26.50;32.21
12101;BME280;6113;42.678;23.334;2022-09-13T12:52:39;94506.84;;;26.31;31.15
12101;BME280;6113;42.678;23.334;2022-09-13T12:55:30;94510.91;;;25.98;31.89
12101;BME280;6113;42.678;23.334;2022-09-13T12:58:14;94505.78;;;25.80;32.84
12101;BME280;6113;42.678;23.334;2022-09-13T13:00:47;94485.28;;;25.31;34.31
12101;BME280;6113;42.678;23.334;2022-09-13T13:03:17;94511.94;;;25.78;33.63
12101;BME280;6113;42.678;23.334;2022-09-13T13:05:47;94511.16;;;25.85;32.52
12101;BME280;6113;42.678;23.334;2022-09-13T13:08:29;94511.47;;;25.43;32.63
12101;BME280;6113;42.678;23.334;2022-09-13T13:11:01;94514.25;;;24.38;35.02
12101;BME280;6113;42.678;23.334;2022-09-13T13:13:33;94513.19;;;24.56;36.08
12101;BME280;6113;42.678;23.334;2022-09-13T13:16:04;94426.28;;;24.13;36.00
12101;BME280;6113;42.678;23.334;2022-09-13T13:18:44;94516.53;;;24.77;36.42
12101;BME280;6113;42.678;23.334;2022-09-13T13:21:25;94481.81;;;24.85;35.92
12101;BME280;6113;42.678;23.334;2022-09-13T13:26:58;94512.75;;;25.42;35.00
12101;BME280;6113;42.678;23.334;2022-09-13T13:29:25;94513.47;;;25.57;34.27
12101;BME280;6113;42.678;23.334;2022-09-13T13:32:08;94483.28;;;25.24;34.07
12101;BME280;6113;42.678;23.334;2022-09-13T13:34:38;94523.56;;;24.78;36.75
12101;BME280;6113;42.678;23.334;2022-09-13T13:37:25;94515.44;;;24.58;36.95
12101;BME280;6113;42.678;23.334;2022-09-13T13:40:20;94532.31;;;24.52;37.44
12101;BME280;6113;42.678;23.334;2022-09-13T13:42:49;94521.00;;;24.58;37.13
12101;BME280;6113;42.678;23.334;2022-09-13T13:45:20;94527.22;;;24.28;36.94
12101;BME280;6113;42.678;23.334;2022-09-13T13:50:47;94528.19;;;24.38;37.10
12101;BME280;6113;42.678;23.334;2022-09-13T13:53:34;94527.84;;;24.49;36.79
12101;BME280;6113;42.678;23.334;2022-09-13T13:56:07;94503.84;;;24.31;37.03
12101;BME280;6113;42.678;23.334;2022-09-13T13:58:48;94498.78;;;24.07;36.02
12101;BME280;6113;42.678;23.334;2022-09-13T14:01:20;94522.88;;;23.97;37.80
12101;BME280;6113;42.678;23.334;2022-09-13T14:04:24;94518.19;;;23.85;37.61
12101;BME280;6113;42.678;23.334;2022-09-13T14:07:04;94533.66;;;23.66;38.69
12101;BME280;6113;42.678;23.334;2022-09-13T14:09:37;94536.50;;;23.45;38.83
12101;BME280;6113;42.678;23.334;2022-09-13T14:12:19;94525.59;;;23.47;38.99
12101;BME280;6113;42.678;23.334;2022-09-13T14:15:11;94533.59;;;23.58;38.12
12101;BME280;6113;42.678;23.334;2022-09-13T14:18:06;94527.94;;;23.36;39.07
12101;BME280;6113;42.678;23.334;2022-09-13T14:20:36;94512.31;;;23.25;39.89
12101;BME280;6113;42.678;23.334;2022-09-13T14:23:16;94543.66;;;23.33;38.60
12101;BME280;6113;42.678;23.334;2022-09-13T14:25:44;94549.41;;;23.35;39.48
12101;BME280;6113;42.678;23.334;2022-09-13T14:28:13;94532.75;;;23.35;38.95
12101;BME280;6113;42.678;23.334;2022-09-13T14:30:44;94540.94;;;23.41;38.85
12101;BME280;6113;42.678;23.334;2022-09-13T14:33:23;94544.19;;;23.24;39.00
12101;BME280;6113;42.678;23.334;2022-09-13T14:35:57;94540.16;;;23.33;38.91
12101;BME280;6113;42.678;23.334;2022-09-13T14:38:25;94521.00;;;23.22;39.03
12101;BME280;6113;42.678;23.334;2022-09-13T14:40:59;94547.81;;;23.12;39.24
12101;BME280;6113;42.678;23.334;2022-09-13T14:43:27;94504.22;;;22.79;40.12
12101;BME280;6113;42.678;23.334;2022-09-13T14:46:00;94546.56;;;23.00;40.64
12101;BME280;6113;42.678;23.334;2022-09-13T14:48:31;94537.56;;;23.07;39.55
12101;BME280;6113;42.678;23.334;2022-09-13T14:51:00;94532.13;;;23.01;38.17
12101;BME280;6113;42.678;23.334;2022-09-13T14:53:31;94544.09;;;22.89;38.85
12101;BME280;6113;42.678;23.334;2022-09-13T14:56:02;94554.56;;;22.83;39.49
12101;BME280;6113;42.678;23.334;2022-09-13T14:58:36;94548.84;;;22.61;39.52
12101;BME280;6113;42.678;23.334;2022-09-13T15:01:08;94537.88;;;22.35;39.60
12101;BME280;6113;42.678;23.334;2022-09-13T15:03:35;94526.25;;;22.23;39.98
12101;BME280;6113;42.678;23.334;2022-09-13T15:06:03;94549.56;;;22.61;40.60
12101;BME280;6113;42.678;23.334;2022-09-13T15:08:43;94536.38;;;22.54;39.49
12101;BME280;6113;42.678;23.334;2022-09-13T15:11:14;94558.09;;;22.43;40.06
12101;BME280;6113;42.678;23.334;2022-09-13T15:13:41;94548.63;;;22.38;40.54
12101;BME280;6113;42.678;23.334;2022-09-13T15:16:27;94553.28;;;22.43;40.64